createdAt,value
2018-09-15T00:03:03.655Z,95567.4
2018-09-15T00:08:01.400Z,95714.9
2018-09-15T00:12:59.423Z,95565.3
2018-09-15T00:17:56.963Z,95569.2
2018-09-15T00:22:54.595Z,95561.9
2018-09-15T00:27:51.923Z,95556
2018-09-15T00:32:49.640Z,95612.4
2018-09-15T00:37:47.322Z,95562.9
2018-09-15T00:42:45.101Z,95554.8
2018-09-15T00:47:42.910Z,95554.2
2018-09-15T00:52:40.605Z,95578.6
2018-09-15T00:57:38.345Z,95579
2018-09-15T01:02:36.389Z,95634.9
2018-09-15T01:07:34.112Z,95594.1
2018-09-15T01:12:32.313Z,95564.8
2018-09-15T01:17:30.161Z,95579.1
2018-09-15T01:22:27.837Z,95566.7
2018-09-15T01:27:25.506Z,95582
2018-09-15T01:32:23.795Z,95644.6
2018-09-15T01:37:21.183Z,95574
2018-09-15T01:42:18.876Z,95577.5
2018-09-15T01:47:16.399Z,95576.8
2018-09-15T01:52:14.474Z,95676.1
2018-09-15T01:57:12.210Z,95563.1
2018-09-15T02:02:09.498Z,95675
2018-09-15T02:07:06.810Z,95561.8
2018-09-15T02:12:04.594Z,95555.5
2018-09-15T02:17:02.306Z,95562
2018-09-15T02:21:59.948Z,95571.8
2018-09-15T02:26:57.536Z,95574.2
2018-09-15T02:31:55.508Z,95561.3
2018-09-15T02:36:53.332Z,95566.1
2018-09-15T02:41:51.068Z,95559.8
2018-09-15T02:46:48.705Z,95603.9
2018-09-15T02:51:46.586Z,95572.5
2018-09-15T02:56:44.111Z,95682.6
2018-09-15T03:01:42.099Z,95573.5
2018-09-15T03:06:39.708Z,95687
2018-09-15T03:11:37.573Z,95582
2018-09-15T03:16:35.304Z,95761.8
2018-09-15T03:21:32.987Z,95691.9
2018-09-15T03:26:30.421Z,95582.7
2018-09-15T03:31:28.030Z,95583.7
2018-09-15T03:36:25.444Z,95747.4
2018-09-15T03:41:23.242Z,95720.5
2018-09-15T03:46:20.767Z,95814.3
2018-09-15T03:51:18.335Z,95587.1
2018-09-15T03:56:16.166Z,95789.7
2018-09-15T04:01:15.295Z,95713.6
2018-09-15T04:06:13.131Z,95719.1
2018-09-15T04:11:10.790Z,95612.8
2018-09-15T04:16:09.168Z,95727.4
2018-09-15T04:21:06.663Z,95736
2018-09-15T04:26:04.381Z,95732.5
2018-09-15T04:31:02.062Z,95738.2
2018-09-15T04:35:59.598Z,95733.4
2018-09-15T04:40:57.306Z,95745.3
2018-09-15T04:45:55.564Z,95751.3
2018-09-15T04:50:53.073Z,95758.1
2018-09-15T04:55:50.664Z,95761.9
2018-09-15T05:00:48.335Z,95774.7
2018-09-15T05:05:45.664Z,95770.5
2018-09-15T05:10:42.906Z,95765.4
2018-09-15T05:15:40.633Z,95773.7
2018-09-15T05:20:38.139Z,95775.6
2018-09-15T05:25:36.545Z,95778.5
2018-09-15T05:30:33.844Z,95814.8
2018-09-15T05:35:31.829Z,95625.7
2018-09-15T05:40:29.310Z,95683.1
2018-09-15T05:45:27.079Z,95787.8
2018-09-15T05:50:24.891Z,95746.9
2018-09-15T05:55:22.403Z,95788.7
2018-09-15T06:00:20.571Z,95793.8
2018-09-15T06:05:18.005Z,95799.2
2018-09-15T06:10:15.426Z,95794.6
2018-09-15T06:15:13.277Z,95588.3
2018-09-15T06:20:10.918Z,95804.4
2018-09-15T06:25:08.998Z,95759.5
2018-09-15T06:30:06.892Z,95799.2
2018-09-15T06:35:04.641Z,95803.8
2018-09-15T06:40:02.215Z,95768.3
2018-09-15T06:44:59.838Z,95805.5
2018-09-15T06:49:57.773Z,95938.5
2018-09-15T06:54:55.547Z,95810
2018-09-15T06:59:53.474Z,95934.1
2018-09-15T07:04:50.918Z,95954
2018-09-15T07:09:48.686Z,95815.4
2018-09-15T07:14:46.426Z,95717
2018-09-15T07:19:44.087Z,95954
2018-09-15T07:24:41.989Z,95711.2
2018-09-15T07:29:39.959Z,95918.3
2018-09-15T07:34:37.713Z,95931.8
2018-09-15T07:39:35.713Z,95809.2
2018-09-15T07:44:33.301Z,95805.2
2018-09-15T07:49:30.901Z,95911
2018-09-15T07:54:28.992Z,95703
2018-09-15T07:59:27.035Z,95809.5
2018-09-15T08:04:25.284Z,95814.3
2018-09-15T08:09:23.536Z,95814.5
2018-09-15T08:14:21.204Z,95704.7
2018-09-15T08:19:18.947Z,95703.7
2018-09-15T08:24:16.794Z,95671
2018-09-15T08:29:15.081Z,95710.4
2018-09-15T08:34:13.068Z,95691.3
2018-09-15T08:39:10.834Z,95697.5
2018-09-15T08:44:08.637Z,95692.5
2018-09-15T08:49:06.682Z,95687.8
2018-09-15T08:54:04.650Z,95685.5
2018-09-15T08:59:03.021Z,95682
2018-09-15T09:04:00.711Z,95679.5
2018-09-15T09:08:59.123Z,95426.1
2018-09-15T09:13:56.902Z,95669.2
2018-09-15T09:18:55.206Z,95779.7
2018-09-15T09:23:53.331Z,95770.8
2018-09-15T09:28:51.176Z,95663.8
2018-09-15T09:33:49.535Z,95766.1
2018-09-15T09:38:47.509Z,95648.1
2018-09-15T09:43:45.213Z,95665.5
2018-09-15T09:48:43.713Z,95757.6
2018-09-15T09:53:41.720Z,95660.5
2018-09-15T09:58:39.932Z,95648.5
2018-09-15T10:03:37.841Z,95654.3
2018-09-15T10:08:35.552Z,95648.9
2018-09-15T10:13:33.511Z,95634
2018-09-15T10:18:31.353Z,95639
2018-09-15T10:23:29.462Z,95729.6
2018-09-15T10:28:27.313Z,95728.6
2018-09-15T10:33:25.794Z,95632.3
2018-09-15T10:38:23.496Z,95722.6
2018-09-15T10:43:21.609Z,95699.1
2018-09-15T10:48:19.848Z,95716.5
2018-09-15T10:53:18.256Z,95713.2
2018-09-15T10:58:16.654Z,95603.8
2018-09-15T11:03:14.537Z,95705
2018-09-15T11:08:12.640Z,95478.1
2018-09-15T11:13:10.484Z,95694.7
2018-09-15T11:18:08.255Z,95692
2018-09-15T11:23:06.330Z,95685.1
2018-09-15T11:28:04.407Z,95683.7
2018-09-15T11:33:02.170Z,95686.2
2018-09-15T11:38:00.048Z,95577.8
2018-09-15T11:42:57.984Z,95679.2
2018-09-15T11:47:56.051Z,95684.4
2018-09-15T11:52:53.824Z,95683
2018-09-15T11:57:52.442Z,95594.7
2018-09-15T12:02:50.385Z,95666.7
2018-09-15T12:07:48.346Z,95672.8
2018-09-15T12:12:46.045Z,95672.2
2018-09-15T12:17:44.056Z,95675
2018-09-15T12:22:42.042Z,95581.9
2018-09-15T12:27:40.763Z,95673.9
2018-09-15T12:32:38.612Z,95668.5
2018-09-15T12:37:36.843Z,95572.7
2018-09-15T12:42:34.454Z,95666.8
2018-09-15T12:47:32.158Z,95673.2
2018-09-15T12:52:29.720Z,95677.9
2018-09-15T12:57:28.024Z,95668.1
2018-09-15T13:02:26.103Z,95668.2
2018-09-15T13:07:24.109Z,95659.5
2018-09-15T13:12:22.224Z,95655.7
2018-09-15T13:17:20.645Z,95649.6
2018-09-15T13:22:18.464Z,95654.3
2018-09-15T13:27:16.389Z,95643
2018-09-15T13:32:13.793Z,95649.6
2018-09-15T13:37:11.718Z,95437.4
2018-09-15T13:42:09.413Z,95648.8
2018-09-15T13:47:06.972Z,95646.4
2018-09-15T13:52:04.828Z,95560.5
2018-09-15T13:57:02.872Z,95645.2
2018-09-15T14:02:00.650Z,95642.8
2018-09-15T14:06:58.752Z,95544.2
2018-09-15T14:11:56.590Z,95652.9
2018-09-15T14:16:54.265Z,95651.6
2018-09-15T14:21:51.869Z,95658.7
2018-09-15T14:26:49.494Z,95656.5
2018-09-15T14:31:47.143Z,95660.8
2018-09-15T14:36:45.020Z,95658
2018-09-15T14:41:42.576Z,95662.5
2018-09-15T14:46:40.484Z,95660.9
2018-09-15T14:51:38.213Z,95661.3
2018-09-15T14:56:36.251Z,95667
2018-09-15T15:01:34.321Z,95673.2
2018-09-15T15:06:32.137Z,95638
2018-09-15T15:11:29.799Z,95675.4
2018-09-15T15:16:28.515Z,95395.1
2018-09-15T15:21:25.991Z,95578.4
2018-09-15T15:26:23.682Z,95681.4
2018-09-15T15:31:21.420Z,95685.3
2018-09-15T15:36:19.181Z,95696.1
2018-09-15T15:41:16.941Z,95704.2
2018-09-15T15:46:14.795Z,95608.1
2018-09-15T15:51:12.147Z,95715.9
2018-09-15T15:56:10.123Z,95712.1
2018-09-15T16:01:07.472Z,95675.8
2018-09-15T16:06:04.782Z,95725.4
2018-09-15T16:11:02.603Z,95980.6
2018-09-15T16:15:59.254Z,95730.5
2018-09-15T16:20:57.256Z,95648.1
2018-09-15T16:25:54.966Z,95775.9
2018-09-15T16:30:52.682Z,95770.8
2018-09-15T16:35:49.851Z,95765.4
2018-09-15T16:40:47.841Z,95769.1
2018-09-15T16:45:45.772Z,95621.2
2018-09-15T16:50:43.570Z,95759.3
2018-09-15T16:55:41.525Z,95764
2018-09-15T17:00:39.556Z,95762.4
2018-09-15T17:05:37.145Z,95760.9
2018-09-15T17:10:34.811Z,95702.2
2018-09-15T17:15:32.826Z,95776.6
2018-09-15T17:20:30.600Z,95694
2018-09-15T17:25:27.908Z,95797.4
2018-09-15T17:30:25.630Z,95700.3
2018-09-15T17:35:23.592Z,95702.3
2018-09-15T17:40:21.222Z,95722.6
2018-09-15T17:45:19.141Z,95713.9
2018-09-15T17:50:16.724Z,95724.6
2018-09-15T17:55:14.477Z,95933.8
2018-09-15T18:00:12.268Z,95746.1
2018-09-15T18:05:10.720Z,95740.5
2018-09-15T18:10:08.496Z,95745.3
2018-09-15T18:15:06.245Z,95751.4
2018-09-15T18:20:03.962Z,95360.5
2018-09-15T18:25:01.190Z,95759.8
2018-09-15T18:29:58.872Z,95766.2
2018-09-15T18:34:56.682Z,95758.1
2018-09-15T18:39:54.422Z,95887.5
2018-09-15T18:44:52.018Z,95798
2018-09-15T18:49:49.604Z,95902.6
2018-09-15T18:54:47.448Z,95800.2
2018-09-15T18:59:45.549Z,95806.5
2018-09-15T19:04:43.203Z,95818.3
2018-09-15T19:09:40.855Z,95817.9
2018-09-15T19:14:39.448Z,95884.7
2018-09-15T19:19:36.876Z,95786.8
2018-09-15T19:24:34.446Z,95835.2
2018-09-15T19:29:32.112Z,95837.7
2018-09-15T19:34:29.750Z,95967.2
2018-09-15T19:39:27.526Z,95856
2018-09-15T19:44:25.377Z,95957.3
2018-09-15T19:49:23.320Z,95853
2018-09-15T19:54:21.241Z,95962.6
2018-09-15T19:59:19.280Z,95833.2
2018-09-15T20:04:16.953Z,95857.1
2018-09-15T20:09:14.723Z,95862.7
2018-09-15T20:14:12.544Z,95956.4
2018-09-15T20:19:10.392Z,95847.6
2018-09-15T20:24:08.457Z,95960.7
2018-09-15T20:29:06.312Z,95966.6
2018-09-15T20:34:04.263Z,95979.8
2018-09-15T20:39:02.067Z,95979.9
2018-09-15T20:43:59.791Z,95882.2
2018-09-15T20:48:57.480Z,95992.5
2018-09-15T20:53:54.811Z,95885.8
2018-09-15T20:58:52.593Z,95885.8
2018-09-15T21:03:50.975Z,95884.7
2018-09-15T21:08:48.138Z,95883.6
2018-09-15T21:13:45.823Z,95899.4
2018-09-15T21:18:43.523Z,95891.6
2018-09-15T21:23:42.103Z,95865
2018-09-15T21:28:39.747Z,96011.9
2018-09-15T21:33:37.494Z,95950.6
2018-09-15T21:38:35.305Z,96017.6
2018-09-15T21:43:32.150Z,96111.7
2018-09-15T21:48:29.733Z,95913.9
2018-09-15T21:53:27.460Z,95915.1
2018-09-15T21:58:25.441Z,96031.5
2018-09-15T22:03:23.448Z,95923.1
2018-09-15T22:08:21.259Z,96028.8
2018-09-15T22:13:19.192Z,95890
2018-09-15T22:18:16.982Z,95930.3
2018-09-15T22:23:14.675Z,95940.6
2018-09-15T22:28:12.749Z,95937.9
2018-09-15T22:33:10.624Z,96048.8
2018-09-15T22:38:08.233Z,95938
2018-09-15T22:43:05.757Z,95941
2018-09-15T22:48:03.529Z,95940.2
2018-09-15T22:53:01.219Z,95942
2018-09-15T22:57:58.962Z,95943.3
2018-09-15T23:02:56.926Z,95937.9
2018-09-15T23:07:54.558Z,95932.9
2018-09-15T23:12:52.465Z,95911.2
2018-09-15T23:17:50.205Z,95934.5
2018-09-15T23:22:48.012Z,95945
2018-09-15T23:27:45.953Z,95948.6
2018-09-15T23:32:43.267Z,96050.6
2018-09-15T23:37:40.859Z,95947.1
2018-09-15T23:42:38.608Z,95943.2
2018-09-15T23:47:36.472Z,95948.4
2018-09-15T23:52:34.495Z,96049
2018-09-15T23:57:32.464Z,96054.1
